Eyemouth, United Kingdom
Current Conditions -  °F | °C
As of 9:50 PM on Thursday 18 Dec 2014 (Local Time) from EGQM Reporting Station
Broken Clouds Broken Clouds  
Wind Chill: 42°   Ceiling: 2400
Heat Index: 46°   Visibility: 6mi
Dew Point: 41°   Wind: 8mph
Humidity: 81%   Direction: 260°W
Pressure: 29.47"   Gusts: NA
Location:  55.87°N, 2.09°W
Report Text: EGQM 182150Z AUTO 26007KT 9999 BKN024/// 08/05 Q0998
Loading
Personal Weather Stations






























Interactive Weather Map New forecast layout! Learn more

10-Day Weather Forecast

Advertisements
Track Severe Weather on mobile